Terminal Aerodrome Forecast
Issued by NWS Wilmington, OH

Current Version | Previous Version | Graphics & Text | Print | Product List | Glossary On
Versions: 1 2 3 4 5 6 7 8 9 10 11 12 13 14 15 16 17 18 19 20
000
FTUS41 KILN 180534
TAFCMH
TAF
KCMH 180534Z 1806/1906 19007KT P6SM SCT250
     FM181400 21010KT P6SM BKN200
     FM182200 22008KT P6SM OVC050
     FM190500 25006KT P6SM OVC026=

USA.gov is the U.S. government's official web portal to all federal, state and local government web resources and services.